createdAt,value
2019-03-19T00:01:37.221Z,4.93
2019-03-19T00:04:03.283Z,6.53
2019-03-19T00:06:29.105Z,5.30
2019-03-19T00:08:55.108Z,6.00
2019-03-19T00:11:20.977Z,5.67
2019-03-19T00:13:46.924Z,4.63
2019-03-19T00:16:12.804Z,9.47
2019-03-19T00:18:38.801Z,4.33
2019-03-19T00:21:04.715Z,5.53
2019-03-19T00:23:32.370Z,4.67
2019-03-19T00:25:58.203Z,4.43
2019-03-19T00:28:24.105Z,5.17
2019-03-19T00:30:50.103Z,3.47
2019-03-19T00:33:16.036Z,5.20
2019-03-19T00:35:41.882Z,6.80
2019-03-19T00:38:07.865Z,5.93
2019-03-19T00:40:33.814Z,7.07
2019-03-19T00:42:59.641Z,7.90
2019-03-19T00:45:25.698Z,6.90
2019-03-19T00:47:51.586Z,9.10
2019-03-19T00:50:17.444Z,7.77
2019-03-19T00:52:43.621Z,9.50
2019-03-19T00:55:10.383Z,9.43
2019-03-19T00:57:36.278Z,9.77
2019-03-19T01:02:37.303Z,6.40
2019-03-19T01:05:04.686Z,8.43
2019-03-19T01:07:30.537Z,9.57
2019-03-19T01:09:56.472Z,10.07
2019-03-19T01:12:22.384Z,11.50
2019-03-19T01:14:48.238Z,10.97
2019-03-19T01:17:14.071Z,9.90
2019-03-19T01:19:40.029Z,9.80
2019-03-19T01:22:06.065Z,12.17
2019-03-19T01:24:32.065Z,10.47
2019-03-19T01:26:58.025Z,10.80
2019-03-19T01:29:23.852Z,13.20
2019-03-19T01:31:49.696Z,11.37
2019-03-19T01:34:15.562Z,10.97
2019-03-19T01:36:41.626Z,9.87
2019-03-19T01:39:07.585Z,10.30
2019-03-19T01:41:33.529Z,8.27
2019-03-19T01:43:59.518Z,9.27
2019-03-19T01:46:25.366Z,8.90
2019-03-19T01:48:51.208Z,8.90
2019-03-19T01:51:17.188Z,9.90
2019-03-19T01:53:46.884Z,9.77
2019-03-19T01:56:12.846Z,10.40
2019-03-19T01:58:38.711Z,8.63
2019-03-19T02:01:04.777Z,9.57
2019-03-19T02:03:30.751Z,12.87
2019-03-19T02:05:56.593Z,9.97
2019-03-19T02:08:22.529Z,13.07
2019-03-19T02:10:48.549Z,10.47
2019-03-19T02:13:14.529Z,10.43
2019-03-19T02:15:40.477Z,11.60
2019-03-19T02:18:06.478Z,7.83
2019-03-19T02:20:32.895Z,8.03
2019-03-19T02:22:58.855Z,8.33
2019-03-19T02:25:24.925Z,10.10
2019-03-19T02:27:50.888Z,8.73
2019-03-19T02:30:17.075Z,9.83
2019-03-19T02:32:42.921Z,9.67
2019-03-19T02:35:08.881Z,9.40
2019-03-19T02:37:34.727Z,7.90
2019-03-19T02:40:00.578Z,9.43
2019-03-19T02:42:26.733Z,10.30
2019-03-19T02:44:52.797Z,9.43
2019-03-19T02:47:18.848Z,9.97
2019-03-19T02:49:44.904Z,11.00
2019-03-19T02:52:10.869Z,12.10
2019-03-19T02:54:36.887Z,11.13
2019-03-19T02:57:02.837Z,11.47
2019-03-19T02:59:28.688Z,12.07
2019-03-19T03:01:54.593Z,10.30
2019-03-19T03:04:20.530Z,12.60
2019-03-19T03:06:46.481Z,12.70
2019-03-19T03:09:12.437Z,13.13
2019-03-19T03:11:38.429Z,12.83
2019-03-19T03:14:04.432Z,14.17
2019-03-19T03:16:30.279Z,12.23
2019-03-19T03:18:56.134Z,12.70
2019-03-19T03:21:22.126Z,12.37
2019-03-19T03:23:47.963Z,13.07
2019-03-19T03:26:13.831Z,13.20
2019-03-19T03:28:39.896Z,12.03
2019-03-19T03:31:05.905Z,12.73
2019-03-19T03:33:31.738Z,13.53
2019-03-19T03:35:57.575Z,12.80
2019-03-19T03:38:23.428Z,13.70
2019-03-19T03:40:49.457Z,13.90
2019-03-19T03:43:15.436Z,12.97
2019-03-19T03:45:41.236Z,13.43
2019-03-19T03:48:07.266Z,12.53
2019-03-19T03:50:33.300Z,13.73
2019-03-19T03:52:59.246Z,15.33
2019-03-19T03:55:25.314Z,13.67
2019-03-19T03:57:51.265Z,13.93
2019-03-19T04:00:21.514Z,12.73
2019-03-19T04:02:47.491Z,14.33
2019-03-19T04:05:13.536Z,14.10
2019-03-19T04:07:39.737Z,13.77
2019-03-19T04:10:14.322Z,14.53
2019-03-19T04:12:40.366Z,14.87
2019-03-19T04:15:15.604Z,14.60
2019-03-19T04:17:41.628Z,14.90
2019-03-19T04:20:09.489Z,15.10
2019-03-19T04:22:35.475Z,16.40
2019-03-19T04:25:01.563Z,15.13
2019-03-19T04:27:27.428Z,13.93
2019-03-19T04:29:53.401Z,14.13
2019-03-19T04:32:19.234Z,14.17
2019-03-19T04:34:45.185Z,16.63
2019-03-19T04:37:11.223Z,14.43
2019-03-19T04:39:37.076Z,14.87
2019-03-19T04:42:03.129Z,15.67
2019-03-19T04:44:29.094Z,14.17
2019-03-19T04:46:54.896Z,15.20
2019-03-19T04:49:20.740Z,13.30
2019-03-19T04:51:46.632Z,18.63
2019-03-19T04:54:12.664Z,13.80
2019-03-19T04:56:38.541Z,15.27
2019-03-19T04:59:04.518Z,14.40
2019-03-19T05:01:30.375Z,14.30
2019-03-19T05:03:56.357Z,14.47
2019-03-19T05:06:22.214Z,15.70
2019-03-19T05:08:48.111Z,19.23
2019-03-19T05:11:14.016Z,15.23
2019-03-19T05:13:39.873Z,15.77
2019-03-19T05:16:05.863Z,15.37
2019-03-19T05:18:31.734Z,15.50
2019-03-19T05:20:57.582Z,14.90
2019-03-19T05:23:23.555Z,15.20
2019-03-19T05:25:49.383Z,17.43
2019-03-19T05:28:15.390Z,14.33
2019-03-19T05:30:41.352Z,15.17
2019-03-19T05:33:07.211Z,17.37
2019-03-19T05:35:35.129Z,14.67
2019-03-19T05:38:01.093Z,14.70
2019-03-19T05:40:27.027Z,13.87
2019-03-19T05:42:52.887Z,15.73
2019-03-19T05:45:18.726Z,16.30
2019-03-19T05:47:44.681Z,15.63
2019-03-19T05:50:17.219Z,15.87
2019-03-19T05:52:43.163Z,14.77
2019-03-19T05:55:09.825Z,14.67
2019-03-19T05:57:35.857Z,15.33
2019-03-19T06:00:07.594Z,15.93
2019-03-19T06:02:33.542Z,14.77
2019-03-19T06:04:59.469Z,15.80
2019-03-19T06:07:25.295Z,18.13
2019-03-19T06:09:51.315Z,15.37
2019-03-19T06:12:17.254Z,15.00
2019-03-19T06:14:43.201Z,14.20
2019-03-19T06:17:09.093Z,15.73
2019-03-19T06:19:34.961Z,16.30
2019-03-19T06:22:00.897Z,15.30
2019-03-19T06:24:26.849Z,14.70
2019-03-19T06:26:52.764Z,16.07
2019-03-19T06:29:18.582Z,17.50
2019-03-19T06:31:44.650Z,16.30
2019-03-19T06:34:10.620Z,14.23
2019-03-19T06:36:36.543Z,14.23
2019-03-19T06:39:05.540Z,15.83
2019-03-19T06:41:31.384Z,17.10
2019-03-19T06:43:57.327Z,15.73
2019-03-19T06:46:23.419Z,16.93
2019-03-19T06:48:49.286Z,15.53
2019-03-19T06:51:15.127Z,13.57
2019-03-19T06:53:41.214Z,16.23
2019-03-19T06:56:07.162Z,15.47
2019-03-19T06:58:33.003Z,16.87
2019-03-19T07:00:58.885Z,17.30
2019-03-19T07:03:24.749Z,15.23
2019-03-19T07:05:50.695Z,15.17
2019-03-19T07:08:16.553Z,16.67
2019-03-19T07:10:42.403Z,15.67
2019-03-19T07:13:08.299Z,15.83
2019-03-19T07:15:34.161Z,15.03
2019-03-19T07:18:00.001Z,14.47
2019-03-19T07:20:27.895Z,18.53
2019-03-19T07:22:53.864Z,15.80
2019-03-19T07:25:19.916Z,16.77
2019-03-19T07:27:46.103Z,12.80
2019-03-19T07:30:23.265Z,8.90
2019-03-19T07:32:49.291Z,15.77
2019-03-19T07:35:15.246Z,12.40
2019-03-19T07:37:41.150Z,10.77
2019-03-19T07:40:10.004Z,13.63
2019-03-19T07:42:35.967Z,12.57
2019-03-19T07:45:04.626Z,10.10
2019-03-19T07:47:30.961Z,9.93
2019-03-19T07:49:56.805Z,11.00
2019-03-19T07:52:22.666Z,10.13
2019-03-19T07:54:48.614Z,8.20
2019-03-19T07:57:14.469Z,8.63
2019-03-19T07:59:40.407Z,8.47
2019-03-19T08:02:06.426Z,12.33
2019-03-19T08:04:32.303Z,9.40
2019-03-19T08:06:58.291Z,12.40
2019-03-19T08:09:24.120Z,11.10
2019-03-19T08:11:49.946Z,12.93
2019-03-19T08:14:15.915Z,11.77
2019-03-19T08:16:41.844Z,10.20
2019-03-19T08:19:07.792Z,9.43
2019-03-19T08:21:33.742Z,10.83
2019-03-19T08:23:59.596Z,10.93
2019-03-19T08:26:25.523Z,11.53
2019-03-19T08:28:55.232Z,11.73
2019-03-19T08:31:19.256Z,11.00
2019-03-19T08:33:45.096Z,11.50
2019-03-19T08:36:10.987Z,12.33
2019-03-19T08:38:36.861Z,12.87
2019-03-19T08:41:02.926Z,14.30
2019-03-19T08:43:28.759Z,12.70
2019-03-19T08:45:54.714Z,12.00
2019-03-19T08:48:21.919Z,7.83
2019-03-19T08:50:47.794Z,13.37
2019-03-19T08:53:13.720Z,7.27
2019-03-19T08:55:39.887Z,6.27
2019-03-19T08:58:05.737Z,4.23
2019-03-19T09:00:31.622Z,8.57
2019-03-19T09:02:57.496Z,6.80
2019-03-19T09:05:23.404Z,5.17
2019-03-19T09:07:49.449Z,3.33
2019-03-19T09:10:16.195Z,4.60
2019-03-19T09:12:42.244Z,3.20
2019-03-19T09:15:19.073Z,3.47
2019-03-19T09:17:44.914Z,5.03
2019-03-19T09:20:15.096Z,4.33
2019-03-19T09:22:41.174Z,6.10
2019-03-19T09:25:09.419Z,3.60
2019-03-19T09:27:35.440Z,4.07
2019-03-19T09:30:01.468Z,5.43
2019-03-19T09:32:27.289Z,3.17
2019-03-19T09:34:53.364Z,4.63
2019-03-19T09:37:19.288Z,5.07
2019-03-19T09:39:45.148Z,6.13
2019-03-19T09:42:11.188Z,3.20
2019-03-19T09:44:37.035Z,3.30
2019-03-19T09:47:02.993Z,26.73
2019-03-19T09:49:28.910Z,30.73
2019-03-19T09:51:54.753Z,12.63
2019-03-19T09:54:20.583Z,7.97
2019-03-19T09:56:46.677Z,4.93
2019-03-19T09:59:12.510Z,4.77
2019-03-19T10:01:38.402Z,3.97
2019-03-19T10:04:04.412Z,6.57
2019-03-19T10:06:30.331Z,6.10
2019-03-19T10:08:56.281Z,10.27
2019-03-19T10:11:22.129Z,7.70
2019-03-19T10:13:47.980Z,5.17
2019-03-19T10:16:13.919Z,4.53
2019-03-19T10:18:39.874Z,5.10
2019-03-19T10:21:05.818Z,5.90
2019-03-19T10:23:31.669Z,4.53
2019-03-19T10:25:57.682Z,6.37
2019-03-19T10:28:23.929Z,5.43
2019-03-19T10:30:49.899Z,4.70
2019-03-19T10:33:16.221Z,8.87
2019-03-19T10:35:42.259Z,5.93
2019-03-19T10:38:08.296Z,5.17
2019-03-19T10:40:34.354Z,7.03
2019-03-19T10:43:00.300Z,7.23
2019-03-19T10:45:26.180Z,5.37
2019-03-19T10:47:52.227Z,5.47
2019-03-19T10:50:21.882Z,4.50
2019-03-19T10:52:48.024Z,4.90
2019-03-19T10:55:14.042Z,6.03
2019-03-19T10:57:39.984Z,5.40
2019-03-19T11:00:10.553Z,6.03
2019-03-19T11:02:36.415Z,6.40
2019-03-19T11:05:05.234Z,6.33
2019-03-19T11:07:31.130Z,6.60
2019-03-19T11:09:57.093Z,7.53
2019-03-19T11:12:23.038Z,5.17
2019-03-19T11:14:48.885Z,7.83
2019-03-19T11:17:14.813Z,8.03
2019-03-19T11:19:40.672Z,7.80
2019-03-19T11:22:06.720Z,5.97
2019-03-19T11:24:32.631Z,5.87
2019-03-19T11:26:58.521Z,10.43
2019-03-19T11:29:24.363Z,6.47
2019-03-19T11:31:50.232Z,7.20
2019-03-19T11:34:16.096Z,7.23
2019-03-19T11:36:42.063Z,11.67
2019-03-19T11:39:08.086Z,9.27
2019-03-19T11:41:33.968Z,7.37
2019-03-19T11:43:59.852Z,6.13
2019-03-19T11:46:25.770Z,6.67
2019-03-19T11:48:51.742Z,8.13
2019-03-19T11:51:17.650Z,7.93
2019-03-19T11:53:43.637Z,7.87
2019-03-19T11:56:09.462Z,7.90
2019-03-19T11:58:35.336Z,8.60
2019-03-19T12:01:03.125Z,7.20
2019-03-19T12:03:28.935Z,8.87
2019-03-19T12:05:54.850Z,9.53
2019-03-19T12:08:20.728Z,8.13
2019-03-19T12:10:46.667Z,7.87
2019-03-19T12:13:12.771Z,7.40
2019-03-19T12:15:38.782Z,9.43
2019-03-19T12:18:04.803Z,8.23
2019-03-19T12:20:30.767Z,11.33
2019-03-19T12:22:56.600Z,8.77
2019-03-19T12:25:22.583Z,10.87
2019-03-19T12:27:48.526Z,8.30
2019-03-19T12:30:22.252Z,7.80
2019-03-19T12:32:44.328Z,8.87
2019-03-19T12:35:11.046Z,7.57
2019-03-19T12:37:36.904Z,7.90
2019-03-19T12:40:13.929Z,8.23
2019-03-19T12:42:39.965Z,7.00
2019-03-19T12:45:17.600Z,7.03
2019-03-19T12:47:43.524Z,7.40
2019-03-19T12:50:16.021Z,7.40
2019-03-19T12:52:41.946Z,7.33
2019-03-19T12:55:08.488Z,8.53
2019-03-19T12:57:34.423Z,9.10
2019-03-19T13:00:00.345Z,6.03
2019-03-19T13:02:26.296Z,7.10
2019-03-19T13:04:52.146Z,7.77
2019-03-19T13:07:18.204Z,5.73
2019-03-19T13:09:44.165Z,7.80
2019-03-19T13:12:10.101Z,7.03
2019-03-19T13:14:36.116Z,5.83
2019-03-19T13:17:02.153Z,8.43
2019-03-19T13:19:28.230Z,6.87
2019-03-19T13:21:54.072Z,6.77
2019-03-19T13:24:19.996Z,6.07
2019-03-19T13:26:45.979Z,6.20
2019-03-19T13:29:11.916Z,7.10
2019-03-19T13:31:37.761Z,5.83
2019-03-19T13:34:03.737Z,5.03
2019-03-19T13:36:29.562Z,7.97
2019-03-19T13:38:55.464Z,7.80
2019-03-19T13:41:21.388Z,7.33
2019-03-19T13:43:47.269Z,7.60
2019-03-19T13:46:13.224Z,8.53
2019-03-19T13:48:39.211Z,6.27
2019-03-19T13:51:05.271Z,8.27
2019-03-19T13:53:31.134Z,7.00
2019-03-19T13:55:57.075Z,6.93
2019-03-19T13:58:22.960Z,7.07
2019-03-19T14:00:55.497Z,5.33
2019-03-19T14:03:16.848Z,6.83
2019-03-19T14:05:42.931Z,8.10
2019-03-19T14:08:08.854Z,7.73
2019-03-19T14:10:34.687Z,8.57
2019-03-19T14:13:00.683Z,6.57
2019-03-19T14:15:26.602Z,7.10
2019-03-19T14:17:52.573Z,9.43
2019-03-19T14:20:18.611Z,8.90
2019-03-19T14:22:45.459Z,5.80
2019-03-19T14:25:15.461Z,7.23
2019-03-19T14:27:41.906Z,7.90
2019-03-19T14:30:16.537Z,6.73
2019-03-19T14:32:42.620Z,8.00
2019-03-19T14:35:08.662Z,7.27
2019-03-19T14:37:34.636Z,8.17
2019-03-19T14:40:00.595Z,6.63
2019-03-19T14:42:26.486Z,7.40
2019-03-19T14:44:52.485Z,11.37
2019-03-19T14:47:18.431Z,6.63
2019-03-19T14:49:47.780Z,7.90
2019-03-19T14:52:12.371Z,9.10
2019-03-19T14:54:38.203Z,8.87
2019-03-19T14:57:04.288Z,9.30
2019-03-19T14:59:30.198Z,12.07
2019-03-19T15:01:56.243Z,8.70
2019-03-19T15:04:22.224Z,7.80
2019-03-19T15:06:48.065Z,7.57
2019-03-19T15:09:14.016Z,6.93
2019-03-19T15:11:40.065Z,7.27
2019-03-19T15:14:06.034Z,8.10
2019-03-19T15:16:31.870Z,7.37
2019-03-19T15:18:57.827Z,6.97
2019-03-19T15:21:23.779Z,6.73
2019-03-19T15:23:49.839Z,6.80
2019-03-19T15:26:15.674Z,6.97
2019-03-19T15:28:41.748Z,8.13
2019-03-19T15:31:07.597Z,8.73
2019-03-19T15:33:33.543Z,10.33
2019-03-19T15:35:59.461Z,7.33
2019-03-19T15:38:25.286Z,7.70
2019-03-19T15:40:51.236Z,9.25
2019-03-19T15:43:17.308Z,6.87
2019-03-19T15:45:48.995Z,6.40
2019-03-19T15:48:14.925Z,7.15
2019-03-19T15:50:40.924Z,8.27
2019-03-19T15:53:06.906Z,7.07
2019-03-19T15:55:33.205Z,6.17
2019-03-19T15:57:59.113Z,8.03
2019-03-19T16:00:25.104Z,8.03
2019-03-19T16:02:51.033Z,6.80
2019-03-19T16:05:17.200Z,11.57
2019-03-19T16:07:43.257Z,5.57
2019-03-19T16:10:12.363Z,6.03
2019-03-19T16:12:38.359Z,9.47
2019-03-19T16:15:07.712Z,10.77
2019-03-19T16:17:33.576Z,5.97
2019-03-19T16:19:59.488Z,6.07
2019-03-19T16:22:25.326Z,7.93
2019-03-19T16:24:51.145Z,8.43
2019-03-19T16:27:17.113Z,6.27
2019-03-19T16:29:43.141Z,7.07
2019-03-19T16:32:09.032Z,8.73
2019-03-19T16:34:34.855Z,8.40
2019-03-19T16:37:00.793Z,6.07
2019-03-19T16:39:26.774Z,8.57
2019-03-19T16:41:52.607Z,6.17
2019-03-19T16:44:18.478Z,11.83
2019-03-19T16:46:44.605Z,10.00
2019-03-19T16:49:10.531Z,10.03
2019-03-19T16:51:39.455Z,6.00
2019-03-19T16:54:05.379Z,7.70
2019-03-19T16:56:31.217Z,9.77
2019-03-19T16:58:57.285Z,8.30
2019-03-19T17:01:23.110Z,7.33
2019-03-19T17:03:48.934Z,6.13
2019-03-19T17:06:14.893Z,7.07
2019-03-19T17:08:40.846Z,8.60
2019-03-19T17:11:06.667Z,15.93
2019-03-19T17:13:32.518Z,13.53
2019-03-19T17:15:58.381Z,8.67
2019-03-19T17:18:24.377Z,12.70
2019-03-19T17:20:50.218Z,8.83
2019-03-19T17:23:16.060Z,12.00
2019-03-19T17:25:42.102Z,8.57
2019-03-19T17:28:08.058Z,11.20
2019-03-19T17:30:34.900Z,6.30
2019-03-19T17:33:00.973Z,7.37
2019-03-19T17:35:26.835Z,8.07
2019-03-19T17:37:52.788Z,7.30
2019-03-19T17:40:18.974Z,9.83
2019-03-19T17:42:44.910Z,8.00
2019-03-19T17:45:14.704Z,12.03
2019-03-19T17:47:41.017Z,10.13
2019-03-19T17:50:20.782Z,7.53
2019-03-19T17:52:49.087Z,10.63
2019-03-19T17:55:15.043Z,9.57
2019-03-19T17:57:41.001Z,7.70
2019-03-19T18:00:10.690Z,12.20
2019-03-19T18:02:36.548Z,10.50
2019-03-19T18:05:05.435Z,11.70
2019-03-19T18:07:31.344Z,10.27
2019-03-19T18:09:57.186Z,10.53
2019-03-19T18:12:23.005Z,8.97
2019-03-19T18:14:49.007Z,10.03
2019-03-19T18:17:14.842Z,10.73
2019-03-19T18:19:40.707Z,10.30
2019-03-19T18:22:06.655Z,9.23
2019-03-19T18:24:32.574Z,12.50
2019-03-19T18:26:58.795Z,14.50
2019-03-19T18:29:24.747Z,9.10
2019-03-19T18:31:50.844Z,8.53
2019-03-19T18:34:18.976Z,7.80
2019-03-19T18:36:44.569Z,9.87
2019-03-19T18:39:13.392Z,10.60
2019-03-19T18:41:39.246Z,11.83
2019-03-19T18:44:05.082Z,11.73
2019-03-19T18:46:31.036Z,10.63
2019-03-19T18:48:56.972Z,11.63
2019-03-19T18:51:22.963Z,9.50
2019-03-19T18:53:48.817Z,8.60
2019-03-19T18:56:14.723Z,8.50
2019-03-19T18:58:40.759Z,9.70
2019-03-19T19:01:06.690Z,10.50
2019-03-19T19:03:32.513Z,11.20
2019-03-19T19:05:58.390Z,11.10
2019-03-19T19:08:24.446Z,9.57
2019-03-19T19:10:50.385Z,8.00
2019-03-19T19:13:16.376Z,8.97
2019-03-19T19:15:42.214Z,9.90
2019-03-19T19:18:08.189Z,7.60
2019-03-19T19:20:34.167Z,8.67
2019-03-19T19:23:00.020Z,6.57
2019-03-19T19:25:26.183Z,14.57
2019-03-19T19:27:52.226Z,7.27
2019-03-19T19:30:19.571Z,7.37
2019-03-19T19:32:45.490Z,8.97
2019-03-19T19:35:11.443Z,7.90
2019-03-19T19:37:37.393Z,7.73
2019-03-19T19:40:07.040Z,7.33
2019-03-19T19:42:32.872Z,6.93
2019-03-19T19:44:58.787Z,7.37
2019-03-19T19:47:24.632Z,7.77
2019-03-19T19:49:50.522Z,6.13
2019-03-19T19:52:16.560Z,10.57
2019-03-19T19:54:42.399Z,8.33
2019-03-19T19:57:08.370Z,5.97
2019-03-19T19:59:35.113Z,6.37
2019-03-19T20:02:00.968Z,13.93
2019-03-19T20:04:26.881Z,7.67
2019-03-19T20:06:52.868Z,5.77
2019-03-19T20:09:18.689Z,7.53
2019-03-19T20:11:44.607Z,9.57
2019-03-19T20:14:10.556Z,9.67
2019-03-19T20:16:36.481Z,6.23
2019-03-19T20:19:02.830Z,9.53
2019-03-19T20:21:28.674Z,7.23
2019-03-19T20:23:54.503Z,5.77
2019-03-19T20:26:20.368Z,9.13
2019-03-19T20:28:46.203Z,8.30
2019-03-19T20:31:12.110Z,8.53
2019-03-19T20:33:37.953Z,9.40
2019-03-19T20:36:03.883Z,9.03
2019-03-19T20:38:32.816Z,11.77
2019-03-19T20:40:58.657Z,7.53
2019-03-19T20:43:24.595Z,8.13
2019-03-19T20:45:50.680Z,5.70
2019-03-19T20:48:16.500Z,10.23
2019-03-19T20:50:42.584Z,7.53
2019-03-19T20:53:08.450Z,7.33
2019-03-19T20:55:34.300Z,6.60
2019-03-19T20:58:00.382Z,17.40
2019-03-19T21:00:26.320Z,8.83
2019-03-19T21:02:52.253Z,8.20
2019-03-19T21:05:18.204Z,11.43
2019-03-19T21:07:44.349Z,7.70
2019-03-19T21:10:16.256Z,5.43
2019-03-19T21:12:42.479Z,6.17
2019-03-19T21:15:19.999Z,6.70
2019-03-19T21:17:46.633Z,7.73
2019-03-19T21:20:12.673Z,8.83
2019-03-19T21:22:38.642Z,6.00
2019-03-19T21:25:05.389Z,5.60
2019-03-19T21:27:31.467Z,7.33
2019-03-19T21:29:57.359Z,5.57
2019-03-19T21:32:23.402Z,6.87
2019-03-19T21:34:49.185Z,9.10
2019-03-19T21:37:15.115Z,9.20
2019-03-19T21:39:41.123Z,5.83
2019-03-19T21:42:06.957Z,8.00
2019-03-19T21:44:32.812Z,6.97
2019-03-19T21:46:58.929Z,9.57
2019-03-19T21:49:24.759Z,6.37
2019-03-19T21:51:50.723Z,8.07
2019-03-19T21:54:17.988Z,8.70
2019-03-19T21:56:43.848Z,10.17
2019-03-19T21:59:10.059Z,10.03
2019-03-19T22:01:35.912Z,9.40
2019-03-19T22:04:03.400Z,5.83
2019-03-19T22:06:29.792Z,7.77
2019-03-19T22:08:55.633Z,5.00
2019-03-19T22:11:21.491Z,9.27
2019-03-19T22:13:47.493Z,7.63
2019-03-19T22:16:13.335Z,8.70
2019-03-19T22:18:39.212Z,7.27
2019-03-19T22:21:05.211Z,9.73
2019-03-19T22:23:31.235Z,6.23
2019-03-19T22:25:57.062Z,9.10
2019-03-19T22:28:22.902Z,7.20
2019-03-19T22:30:52.490Z,7.43
2019-03-19T22:33:18.325Z,9.33
2019-03-19T22:35:44.311Z,5.57
2019-03-19T22:38:10.265Z,6.60
2019-03-19T22:40:36.192Z,7.37
2019-03-19T22:43:02.141Z,13.43
2019-03-19T22:45:28.096Z,9.37
2019-03-19T22:47:54.097Z,8.90
2019-03-19T22:50:20.023Z,7.97
2019-03-19T22:52:46.078Z,9.57
2019-03-19T22:55:12.947Z,7.60
2019-03-19T22:57:38.879Z,6.57
2019-03-19T23:00:08.414Z,6.97
2019-03-19T23:02:34.266Z,7.80
2019-03-19T23:05:00.329Z,8.73
2019-03-19T23:07:26.263Z,10.47
2019-03-19T23:09:52.115Z,8.77
2019-03-19T23:12:18.020Z,10.00
2019-03-19T23:14:43.968Z,11.50
2019-03-19T23:17:10.020Z,12.53
2019-03-19T23:19:35.896Z,10.47
2019-03-19T23:22:01.851Z,11.87
2019-03-19T23:24:27.868Z,9.13
2019-03-19T23:26:53.801Z,8.63
2019-03-19T23:29:19.747Z,10.97
2019-03-19T23:31:45.662Z,9.83
2019-03-19T23:34:11.526Z,9.60
2019-03-19T23:36:37.490Z,7.93
2019-03-19T23:39:04.657Z,8.83
2019-03-19T23:41:30.508Z,11.23
2019-03-19T23:43:56.665Z,8.80
2019-03-19T23:46:22.481Z,10.57
2019-03-19T23:48:48.316Z,8.50
2019-03-19T23:51:14.215Z,8.03
2019-03-19T23:53:40.068Z,6.87
2019-03-19T23:56:06.127Z,9.57
2019-03-19T23:58:32.018Z,9.70
